Time;durP1;ratioP1;P1;durP2;ratioP2;P2;SDS_P1;SDS_P2;PMS_P1;PMS_P2;Temp;Humidity;BMP_temperature;BMP_pressure;BME280_temperature;BME280_humidity;BME280_pressure;Samples;Min_cycle;Max_cycle;Signal;HPM_P1;HPM_P2
2022/10/16 00:00:44;;;;;;;;;;;15.50;99.90;;;;;;5012254;28;20505;-63
2022/10/16 00:03:12;;;;;;;;;;;15.50;99.90;;;;;;5009955;28;20048;-63
2022/10/16 00:05:40;;;;;;;;;;;15.60;99.90;;;;;;5013399;28;19971;-64
2022/10/16 00:08:08;;;;;;;;;;;15.60;99.90;;;;;;5013119;28;19979;-64
2022/10/16 00:10:37;;;;;;;;;;;15.60;99.90;;;;;;5006806;28;19969;-64
2022/10/16 00:13:05;;;;;;;;;;;15.60;99.90;;;;;;5012627;28;19969;-64
2022/10/16 00:15:35;;;;;;;;;;;15.70;99.90;;;;;;5010924;28;19971;-64
2022/10/16 00:18:03;;;;;;;;;;;15.70;99.90;;;;;;5011870;28;19968;-64
2022/10/16 00:20:33;;;;;;;;;;;15.80;99.90;;;;;;5013973;28;19972;-64
2022/10/16 00:23:01;;;;;;;;;;;15.80;99.90;;;;;;5014947;28;19971;-64
2022/10/16 00:25:28;;;;;;;;;;;15.80;99.90;;;;;;5015040;28;19980;-65
2022/10/16 00:27:57;;;;;;;;;;;15.80;99.90;;;;;;5013223;28;19964;-64
2022/10/16 00:30:27;;;;;;;;;;;15.80;99.90;;;;;;5011941;28;19968;-64
2022/10/16 00:32:55;;;;;;;;;;;15.80;99.90;;;;;;5012809;28;19973;-65
2022/10/16 00:35:23;;;;;;;;;;;15.80;99.90;;;;;;5013023;28;19967;-64
2022/10/16 00:37:50;;;;;;;;;;;15.80;99.90;;;;;;5014138;28;19968;-64
2022/10/16 00:40:18;;;;;;;;;;;15.80;99.90;;;;;;5013298;28;19981;-63
2022/10/16 00:42:46;;;;;;;;;;;15.80;99.90;;;;;;5013789;28;20457;-64
2022/10/16 00:45:15;;;;;;;;;;;15.80;99.90;;;;;;5013316;28;20444;-65
2022/10/16 00:47:45;;;;;;;;;;;15.80;99.90;;;;;;5005103;28;19975;-63
2022/10/16 00:50:15;;;;;;;;;;;15.80;99.90;;;;;;5013325;28;19968;-64
2022/10/16 00:52:45;;;;;;;;;;;15.80;99.90;;;;;;5013483;28;20365;-64
2022/10/16 00:55:12;;;;;;;;;;;15.90;99.90;;;;;;5013215;28;19968;-64
2022/10/16 00:57:40;;;;;;;;;;;15.90;99.90;;;;;;5013787;28;20361;-63
2022/10/16 01:00:10;;;;;;;;;;;16.00;99.90;;;;;;5013793;28;20377;-64
2022/10/16 01:02:39;;;;;;;;;;;15.90;99.90;;;;;;5013089;28;20311;-63
2022/10/16 01:05:07;;;;;;;;;;;15.90;99.90;;;;;;5014472;28;20015;-64
2022/10/16 01:07:39;;;;;;;;;;;15.90;99.90;;;;;;5012487;28;19965;-64
2022/10/16 01:10:10;;;;;;;;;;;15.80;99.90;;;;;;5012816;28;20057;-63
2022/10/16 01:12:41;;;;;;;;;;;15.80;99.90;;;;;;5012048;28;20438;-64
2022/10/16 01:15:18;;;;;;;;;;;15.80;99.90;;;;;;5014014;28;19967;-64
2022/10/16 01:17:50;;;;;;;;;;;15.70;99.90;;;;;;5012281;28;19971;-63
2022/10/16 01:20:22;;;;;;;;;;;15.70;99.90;;;;;;5010777;28;19968;-63
2022/10/16 01:22:57;;;;;;;;;;;15.70;99.90;;;;;;5013859;28;19968;-64
2022/10/16 01:25:31;;;;;;;;;;;15.70;99.90;;;;;;5013734;28;19976;-63
2022/10/16 01:28:02;;;;;;;;;;;15.70;99.90;;;;;;5013913;28;19979;-64
2022/10/16 01:30:31;;;;;;;;;;;15.70;99.90;;;;;;5014937;28;20406;-64
2022/10/16 01:33:02;;;;;;;;;;;15.60;99.90;;;;;;5013828;28;19973;-64
2022/10/16 01:35:32;;;;;;;;;;;15.60;99.90;;;;;;5013852;28;19969;-64
2022/10/16 01:38:02;;;;;;;;;;;15.60;99.90;;;;;;5013492;28;19979;-64
2022/10/16 01:40:33;;;;;;;;;;;15.70;99.90;;;;;;5013320;28;20087;-64
2022/10/16 01:43:05;;;;;;;;;;;15.70;99.90;;;;;;5012660;28;19968;-64
2022/10/16 01:45:33;;;;;;;;;;;15.70;99.90;;;;;;5012896;28;19965;-64
2022/10/16 01:48:03;;;;;;;;;;;15.60;99.90;;;;;;5012090;28;19969;-66
2022/10/16 01:50:33;;;;;;;;;;;15.60;99.90;;;;;;5012239;28;20091;-64
2022/10/16 01:53:02;;;;;;;;;;;15.60;99.90;;;;;;5012488;28;19968;-64
2022/10/16 01:55:32;;;;;;;;;;;15.60;99.90;;;;;;5012478;28;19968;-64
2022/10/16 01:58:01;;;;;;;;;;;15.60;99.90;;;;;;5011626;28;20494;-64
2022/10/16 02:00:31;;;;;;;;;;;15.60;99.90;;;;;;5012671;28;20080;-65
2022/10/16 02:03:00;;;;;;;;;;;15.60;99.90;;;;;;5011405;28;19973;-63
2022/10/16 02:05:31;;;;;;;;;;;15.50;99.90;;;;;;5013067;28;19973;-63
2022/10/16 02:07:59;;;;;;;;;;;15.50;99.90;;;;;;5011923;28;19973;-64
2022/10/16 02:10:32;;;;;;;;;;;15.50;99.90;;;;;;5012018;28;20095;-64
2022/10/16 02:13:04;;;;;;;;;;;15.50;99.90;;;;;;5010960;28;20353;-64
2022/10/16 02:15:33;;;;;;;;;;;15.60;99.90;;;;;;5011363;28;19973;-64
2022/10/16 02:18:01;;;;;;;;;;;15.60;99.90;;;;;;5012130;28;19973;-64
2022/10/16 02:20:32;;;;;;;;;;;15.60;99.90;;;;;;5011656;28;19972;-64
2022/10/16 02:23:01;;;;;;;;;;;15.70;99.90;;;;;;5011535;28;20374;-64
2022/10/16 02:25:31;;;;;;;;;;;15.70;99.90;;;;;;5012800;28;20366;-65
2022/10/16 02:28:01;;;;;;;;;;;15.70;99.90;;;;;;5011869;28;20375;-64
2022/10/16 02:30:31;;;;;;;;;;;15.70;99.90;;;;;;5012176;28;20349;-64
2022/10/16 02:33:01;;;;;;;;;;;15.80;99.90;;;;;;5011704;28;19979;-63
2022/10/16 02:35:29;;;;;;;;;;;15.80;99.90;;;;;;5010446;28;19969;-64
2022/10/16 02:37:57;;;;;;;;;;;15.70;99.90;;;;;;5011836;28;20051;-64
2022/10/16 02:40:26;;;;;;;;;;;15.80;99.90;;;;;;5009978;28;19965;-64
2022/10/16 02:42:54;;;;;;;;;;;15.80;99.90;;;;;;5011416;28;19967;-64
2022/10/16 02:45:22;;;;;;;;;;;15.80;99.90;;;;;;5012112;28;20015;-65
2022/10/16 02:47:50;;;;;;;;;;;15.80;99.90;;;;;;5009288;28;19972;-65
2022/10/16 02:50:19;;;;;;;;;;;15.80;99.90;;;;;;5010433;28;20067;-63
2022/10/16 02:52:47;;;;;;;;;;;15.70;99.90;;;;;;5011174;28;19963;-64
2022/10/16 02:55:15;;;;;;;;;;;15.80;99.90;;;;;;5010680;28;20058;-63
2022/10/16 02:57:43;;;;;;;;;;;15.80;99.90;;;;;;5011522;28;19964;-64
2022/10/16 03:00:12;;;;;;;;;;;15.70;99.90;;;;;;5010145;28;19972;-64
2022/10/16 03:02:40;;;;;;;;;;;15.70;99.90;;;;;;5003131;28;19979;-64
2022/10/16 03:05:08;;;;;;;;;;;15.70;99.90;;;;;;5011209;28;19977;-64
2022/10/16 03:07:37;;;;;;;;;;;15.80;99.90;;;;;;5010226;28;19969;-64
2022/10/16 03:10:06;;;;;;;;;;;15.80;99.90;;;;;;5011032;28;20349;-63
2022/10/16 03:12:33;;;;;;;;;;;15.70;99.90;;;;;;5011119;28;20389;-64
2022/10/16 03:15:01;;;;;;;;;;;15.70;99.90;;;;;;5010934;28;19967;-63
2022/10/16 03:17:29;;;;;;;;;;;15.70;99.90;;;;;;5009477;28;19969;-63
2022/10/16 03:19:56;;;;;;;;;;;15.60;99.90;;;;;;5008678;28;20345;-64
2022/10/16 03:22:24;;;;;;;;;;;15.60;99.90;;;;;;5010451;28;20374;-64
2022/10/16 03:24:53;;;;;;;;;;;15.70;99.90;;;;;;5138984;22;19975;-64
2022/10/16 03:27:21;;;;;;;;;;;15.70;99.90;;;;;;5054264;28;20348;-64
2022/10/16 03:29:49;;;;;;;;;;;15.70;99.90;;;;;;5055902;28;20391;-64
2022/10/16 03:32:16;;;;;;;;;;;15.60;99.90;;;;;;5054932;28;19964;-64
2022/10/16 03:34:44;;;;;;;;;;;15.60;99.90;;;;;;5055189;28;20059;-64
2022/10/16 03:37:12;;;;;;;;;;;15.60;99.90;;;;;;5054971;28;19968;-64
2022/10/16 03:39:40;;;;;;;;;;;15.60;99.90;;;;;;5053933;28;20340;-64
2022/10/16 03:42:09;;;;;;;;;;;15.60;99.90;;;;;;5049298;28;20339;-64
2022/10/16 03:44:36;;;;;;;;;;;15.60;99.90;;;;;;5054088;28;20050;-64
2022/10/16 03:47:04;;;;;;;;;;;15.60;99.90;;;;;;5054695;28;19968;-64
2022/10/16 03:49:32;;;;;;;;;;;15.60;99.90;;;;;;5053811;28;19975;-64
2022/10/16 03:51:59;;;;;;;;;;;15.60;99.90;;;;;;5049536;28;19978;-64
2022/10/16 03:54:27;;;;;;;;;;;15.60;99.90;;;;;;5055487;28;19968;-64
2022/10/16 03:56:55;;;;;;;;;;;15.60;99.90;;;;;;5052569;28;19968;-64
2022/10/16 03:59:24;;;;;;;;;;;15.60;99.90;;;;;;5050179;28;19967;-64
2022/10/16 04:01:51;;;;;;;;;;;15.60;99.90;;;;;;5053188;28;20003;-64
2022/10/16 04:04:19;;;;;;;;;;;15.60;99.90;;;;;;5053474;28;19979;-65
2022/10/16 04:06:47;;;;;;;;;;;15.60;99.90;;;;;;5054289;28;19963;-64
2022/10/16 04:09:15;;;;;;;;;;;15.70;99.90;;;;;;5054916;28;19968;-63
2022/10/16 04:11:42;;;;;;;;;;;15.70;99.90;;;;;;5051011;28;19964;-64
2022/10/16 04:14:10;;;;;;;;;;;15.70;99.90;;;;;;5051345;28;20010;-65
2022/10/16 04:16:39;;;;;;;;;;;15.70;99.90;;;;;;5045942;28;19965;-64
2022/10/16 04:19:07;;;;;;;;;;;15.60;99.90;;;;;;5039130;28;19964;-64
2022/10/16 04:21:34;;;;;;;;;;;15.60;99.90;;;;;;5053340;28;19970;-64
2022/10/16 04:24:02;;;;;;;;;;;15.60;99.90;;;;;;5061166;28;19974;-64
2022/10/16 04:26:30;;;;;;;;;;;15.50;99.90;;;;;;5066736;28;20356;-64
2022/10/16 04:28:58;;;;;;;;;;;15.50;99.90;;;;;;5074041;28;20037;-64
2022/10/16 04:31:26;;;;;;;;;;;15.50;99.90;;;;;;5073279;28;19964;-64
2022/10/16 04:33:55;;;;;;;;;;;15.60;99.90;;;;;;5070916;28;19968;-65
2022/10/16 04:36:22;;;;;;;;;;;15.60;99.90;;;;;;5073596;28;20019;-64
2022/10/16 04:38:55;;;;;;;;;;;15.70;99.90;;;;;;5072649;28;19975;-64
2022/10/16 04:41:23;;;;;;;;;;;15.70;99.90;;;;;;5073196;28;20433;-64
2022/10/16 04:43:51;;;;;;;;;;;15.80;99.90;;;;;;5071101;28;20343;-64
2022/10/16 04:46:18;;;;;;;;;;;15.80;99.90;;;;;;5073501;28;19994;-64
2022/10/16 04:48:46;;;;;;;;;;;15.80;99.90;;;;;;5072391;28;19996;-64
2022/10/16 04:51:16;;;;;;;;;;;15.90;99.90;;;;;;5073159;28;19968;-64
2022/10/16 04:53:43;;;;;;;;;;;15.90;99.90;;;;;;5073250;28;20650;-65
2022/10/16 04:56:11;;;;;;;;;;;15.90;99.90;;;;;;5073361;28;19999;-65
2022/10/16 04:58:39;;;;;;;;;;;15.90;99.90;;;;;;5074034;28;20061;-63
2022/10/16 05:01:06;;;;;;;;;;;16.00;99.90;;;;;;5071968;28;21438;-64
2022/10/16 05:03:34;;;;;;;;;;;16.00;99.90;;;;;;5072110;28;20429;-64
2022/10/16 05:06:03;;;;;;;;;;;15.90;99.90;;;;;;5072731;28;19972;-64
2022/10/16 05:08:32;;;;;;;;;;;15.90;99.90;;;;;;5072420;28;20016;-64
2022/10/16 05:11:01;;;;;;;;;;;15.90;99.90;;;;;;5072702;28;19971;-64
2022/10/16 05:13:29;;;;;;;;;;;15.90;99.90;;;;;;5070555;28;19966;-64
2022/10/16 05:15:56;;;;;;;;;;;16.00;99.90;;;;;;5072829;28;19964;-65
2022/10/16 05:18:24;;;;;;;;;;;15.90;99.90;;;;;;5071247;28;19968;-64
2022/10/16 05:20:52;;;;;;;;;;;15.90;99.90;;;;;;5067216;28;19968;-64
2022/10/16 05:23:20;;;;;;;;;;;15.90;99.90;;;;;;5072327;28;19964;-64
2022/10/16 05:25:55;;;;;;;;;;;15.90;99.90;;;;;;5079911;28;19981;-64
2022/10/16 05:28:22;;;;;;;;;;;15.90;99.90;;;;;;5082144;28;19974;-64
2022/10/16 05:30:50;;;;;;;;;;;15.90;99.90;;;;;;5073185;28;19996;-64
2022/10/16 05:33:18;;;;;;;;;;;15.90;99.90;;;;;;5072437;28;19967;-64
2022/10/16 05:35:46;;;;;;;;;;;15.90;99.90;;;;;;5072719;28;20078;-65
2022/10/16 05:38:14;;;;;;;;;;;15.90;99.90;;;;;;5072625;28;19968;-64
2022/10/16 05:40:41;;;;;;;;;;;15.90;99.90;;;;;;5073013;28;20458;-64
2022/10/16 05:43:10;;;;;;;;;;;15.90;99.90;;;;;;5069778;28;19967;-64
2022/10/16 05:45:38;;;;;;;;;;;15.80;99.90;;;;;;5065913;28;19963;-64
2022/10/16 05:48:06;;;;;;;;;;;15.90;99.90;;;;;;5068907;28;19963;-64
2022/10/16 05:50:34;;;;;;;;;;;15.80;99.90;;;;;;5062645;28;19964;-63
2022/10/16 05:53:02;;;;;;;;;;;15.70;99.90;;;;;;5064898;28;19964;-64
2022/10/16 05:55:29;;;;;;;;;;;15.70;99.90;;;;;;5070908;28;20066;-65
2022/10/16 05:57:57;;;;;;;;;;;15.70;99.90;;;;;;5067560;28;19999;-64
2022/10/16 06:00:26;;;;;;;;;;;15.70;99.90;;;;;;5071128;28;20001;-63
2022/10/16 06:02:54;;;;;;;;;;;15.70;99.90;;;;;;5061878;28;20457;-65
2022/10/16 06:05:22;;;;;;;;;;;15.70;99.90;;;;;;5065368;28;19968;-64
2022/10/16 06:07:49;;;;;;;;;;;15.70;99.90;;;;;;5065343;28;19967;-64
2022/10/16 06:10:17;;;;;;;;;;;15.70;99.90;;;;;;5063894;28;19970;-63
2022/10/16 06:12:45;;;;;;;;;;;15.70;99.90;;;;;;5060808;28;20059;-64
2022/10/16 06:15:13;;;;;;;;;;;15.80;99.90;;;;;;5065037;28;20054;-64
2022/10/16 06:17:42;;;;;;;;;;;15.80;99.90;;;;;;5066327;28;20517;-64
2022/10/16 06:20:10;;;;;;;;;;;15.80;99.90;;;;;;5068521;28;19964;-64
2022/10/16 06:22:37;;;;;;;;;;;15.80;99.90;;;;;;5071934;28;19968;-64
2022/10/16 06:25:05;;;;;;;;;;;15.80;99.90;;;;;;5059265;28;20437;-65
2022/10/16 06:27:33;;;;;;;;;;;15.80;99.90;;;;;;5063404;28;20424;-65
2022/10/16 06:30:01;;;;;;;;;;;15.80;99.90;;;;;;5065090;28;20468;-64
2022/10/16 06:32:29;;;;;;;;;;;15.80;99.90;;;;;;5066415;28;19963;-64
2022/10/16 06:34:58;;;;;;;;;;;15.90;99.90;;;;;;5067648;28;19966;-64
2022/10/16 06:37:25;;;;;;;;;;;15.90;99.90;;;;;;5067003;28;19964;-64
2022/10/16 06:39:54;;;;;;;;;;;15.90;99.90;;;;;;5069000;28;20252;-64
2022/10/16 06:42:21;;;;;;;;;;;15.80;99.90;;;;;;5072004;28;19968;-64
2022/10/16 06:44:49;;;;;;;;;;;15.80;99.90;;;;;;5058988;28;19972;-64
2022/10/16 06:47:17;;;;;;;;;;;15.80;99.90;;;;;;5054302;28;20337;-64
2022/10/16 06:49:45;;;;;;;;;;;15.80;99.90;;;;;;5063316;28;19964;-64
2022/10/16 06:52:19;;;;;;;;;;;15.80;99.90;;;;;;5068694;28;20008;-64
2022/10/16 06:54:47;;;;;;;;;;;15.90;99.90;;;;;;5069881;28;20474;-66
2022/10/16 06:57:15;;;;;;;;;;;15.90;99.90;;;;;;5064914;28;20344;-64
2022/10/16 06:59:42;;;;;;;;;;;15.90;99.90;;;;;;5055936;28;19967;-63
2022/10/16 07:02:13;;;;;;;;;;;15.90;99.90;;;;;;5062857;28;19963;-64
2022/10/16 07:04:41;;;;;;;;;;;15.90;99.90;;;;;;5054100;28;19964;-64
2022/10/16 07:07:09;;;;;;;;;;;16.00;99.90;;;;;;5059677;28;20394;-65
2022/10/16 07:09:38;;;;;;;;;;;16.00;99.90;;;;;;5058401;28;19989;-65
2022/10/16 07:12:06;;;;;;;;;;;16.00;99.90;;;;;;5061315;28;19976;-65
2022/10/16 07:14:33;;;;;;;;;;;16.10;99.90;;;;;;5059862;28;19971;-64
2022/10/16 07:17:01;;;;;;;;;;;16.10;99.90;;;;;;5059010;28;20007;-64
2022/10/16 07:19:29;;;;;;;;;;;16.10;99.90;;;;;;5058907;28;19972;-65
2022/10/16 07:22:01;;;;;;;;;;;16.10;99.90;;;;;;5061544;28;19976;-65
2022/10/16 07:24:28;;;;;;;;;;;16.00;99.90;;;;;;5057973;28;19976;-65
2022/10/16 07:26:57;;;;;;;;;;;16.10;99.90;;;;;;5059907;28;19976;-64
2022/10/16 07:29:25;;;;;;;;;;;16.10;99.90;;;;;;5059278;28;19976;-64
2022/10/16 07:31:53;;;;;;;;;;;16.10;99.90;;;;;;5060616;28;19976;-64
2022/10/16 07:34:22;;;;;;;;;;;16.00;99.90;;;;;;5060172;28;19975;-64
2022/10/16 07:36:50;;;;;;;;;;;16.00;99.90;;;;;;5057318;28;19970;-65
2022/10/16 07:39:18;;;;;;;;;;;16.10;99.90;;;;;;5059468;28;20231;-65
2022/10/16 07:41:45;;;;;;;;;;;16.10;99.90;;;;;;5059540;28;19963;-65
2022/10/16 07:44:16;;;;;;;;;;;16.10;99.90;;;;;;5059881;28;20371;-65
2022/10/16 07:46:43;;;;;;;;;;;16.10;99.90;;;;;;5057972;28;20347;-65
2022/10/16 07:49:11;;;;;;;;;;;16.20;99.90;;;;;;5059962;28;20340;-65
2022/10/16 07:51:39;;;;;;;;;;;16.20;99.90;;;;;;5060525;28;19971;-64
2022/10/16 07:54:08;;;;;;;;;;;16.30;99.90;;;;;;5061147;28;20480;-65
2022/10/16 07:56:36;;;;;;;;;;;16.40;99.90;;;;;;5060607;28;19970;-65
2022/10/16 07:59:09;;;;;;;;;;;16.40;99.90;;;;;;5059299;28;19982;-65
2022/10/16 08:01:38;;;;;;;;;;;16.50;99.90;;;;;;5059525;28;19971;-64
2022/10/16 08:04:06;;;;;;;;;;;16.50;99.90;;;;;;5059938;28;20420;-65
2022/10/16 08:06:35;;;;;;;;;;;16.40;99.90;;;;;;5060758;28;19978;-65
2022/10/16 08:09:03;;;;;;;;;;;16.40;99.90;;;;;;5058581;28;19976;-65
2022/10/16 08:11:32;;;;;;;;;;;16.30;99.90;;;;;;5060071;28;19998;-64
2022/10/16 08:13:59;;;;;;;;;;;16.40;99.90;;;;;;5064458;28;19979;-64
2022/10/16 08:16:27;;;;;;;;;;;16.40;99.90;;;;;;5064775;28;21405;-64
2022/10/16 08:18:56;;;;;;;;;;;16.40;99.90;;;;;;5060942;28;20624;-64
2022/10/16 08:21:24;;;;;;;;;;;16.40;99.90;;;;;;5062774;28;19970;-64
2022/10/16 08:23:53;;;;;;;;;;;16.40;99.90;;;;;;5063025;28;20530;-65
2022/10/16 08:26:25;;;;;;;;;;;16.40;99.90;;;;;;5063398;28;20146;-65
2022/10/16 08:28:53;;;;;;;;;;;16.40;99.90;;;;;;5061077;28;19978;-64
2022/10/16 08:31:21;;;;;;;;;;;16.40;99.90;;;;;;5062764;28;19971;-65
2022/10/16 08:33:49;;;;;;;;;;;16.50;99.90;;;;;;5061787;28;19975;-64
2022/10/16 08:36:18;;;;;;;;;;;16.50;99.90;;;;;;5064040;28;19962;-65
2022/10/16 08:38:48;;;;;;;;;;;16.50;99.90;;;;;;5062911;28;19968;-65
2022/10/16 08:41:20;;;;;;;;;;;16.50;99.90;;;;;;5064953;28;19968;-65
2022/10/16 08:44:05;;;;;;;;;;;16.60;99.90;;;;;;5063334;28;19970;-64
2022/10/16 08:46:38;;;;;;;;;;;16.60;99.90;;;;;;5065708;28;19978;-65
2022/10/16 08:49:09;;;;;;;;;;;16.70;99.90;;;;;;5063491;28;19974;-64
2022/10/16 08:51:38;;;;;;;;;;;16.80;99.90;;;;;;5065271;28;19986;-65
2022/10/16 08:54:16;;;;;;;;;;;16.80;99.90;;;;;;5064769;28;20561;-64
2022/10/16 08:56:44;;;;;;;;;;;16.80;99.90;;;;;;5063788;28;20308;-65
2022/10/16 08:59:13;;;;;;;;;;;17.00;99.90;;;;;;5063813;28;19974;-65
2022/10/16 09:01:42;;;;;;;;;;;17.10;99.90;;;;;;5065252;28;19969;-65
2022/10/16 09:04:23;;;;;;;;;;;17.20;99.90;;;;;;5064183;28;19967;-65
2022/10/16 09:06:55;;;;;;;;;;;17.20;99.90;;;;;;5063363;28;19981;-64
2022/10/16 09:09:30;;;;;;;;;;;17.20;99.90;;;;;;5063711;28;19970;-64
2022/10/16 09:12:01;;;;;;;;;;;17.10;99.90;;;;;;5064449;28;20060;-65
2022/10/16 09:14:43;;;;;;;;;;;17.10;99.90;;;;;;5064945;28;19982;-65
2022/10/16 09:17:21;;;;;;;;;;;17.10;99.90;;;;;;5059183;28;20447;-65
2022/10/16 09:19:51;;;;;;;;;;;17.10;99.90;;;;;;5063626;28;19975;-65
2022/10/16 09:22:23;;;;;;;;;;;17.10;99.90;;;;;;5063861;28;19971;-64
2022/10/16 09:24:50;;;;;;;;;;;17.10;99.90;;;;;;5034908;22;19983;-64
2022/10/16 09:27:18;;;;;;;;;;;17.00;99.90;;;;;;4979827;28;20022;-66
2022/10/16 09:29:46;;;;;;;;;;;17.00;99.90;;;;;;4982007;28;19968;-65
2022/10/16 09:32:16;;;;;;;;;;;17.00;99.90;;;;;;4980388;28;20456;-64
2022/10/16 09:34:46;;;;;;;;;;;17.00;99.90;;;;;;4982068;28;19965;-65
2022/10/16 09:37:15;;;;;;;;;;;17.00;99.90;;;;;;4967010;28;19974;-65
2022/10/16 09:39:48;;;;;;;;;;;17.00;99.90;;;;;;4973312;28;19968;-65
2022/10/16 09:42:17;;;;;;;;;;;17.00;99.90;;;;;;4967591;28;19968;-64
2022/10/16 09:44:48;;;;;;;;;;;17.00;99.90;;;;;;4971485;28;19971;-64
2022/10/16 09:47:17;;;;;;;;;;;17.10;99.90;;;;;;4972333;28;19974;-64
2022/10/16 09:49:51;;;;;;;;;;;17.10;99.90;;;;;;4972303;28;20490;-64
2022/10/16 09:52:19;;;;;;;;;;;17.20;99.90;;;;;;4967987;28;20449;-65
2022/10/16 09:54:52;;;;;;;;;;;17.10;99.90;;;;;;4967999;28;19964;-65
2022/10/16 09:57:20;;;;;;;;;;;17.20;99.90;;;;;;4967221;28;19997;-65
2022/10/16 09:59:49;;;;;;;;;;;17.30;99.90;;;;;;4970700;28;21270;-65
2022/10/16 10:02:18;;;;;;;;;;;17.40;99.90;;;;;;4968648;28;19968;-65
2022/10/16 10:04:49;;;;;;;;;;;17.50;99.90;;;;;;4972088;28;20364;-66
2022/10/16 10:07:22;;;;;;;;;;;17.50;99.90;;;;;;4974392;28;19968;-65
2022/10/16 10:09:49;;;;;;;;;;;17.60;99.90;;;;;;4971298;28;20598;-65
2022/10/16 10:12:20;;;;;;;;;;;17.60;99.90;;;;;;4972391;28;20054;-66
2022/10/16 10:14:54;;;;;;;;;;;17.70;99.90;;;;;;4971876;28;20121;-64
2022/10/16 10:17:22;;;;;;;;;;;17.80;99.90;;;;;;4968590;28;20404;-64
2022/10/16 10:19:52;;;;;;;;;;;17.90;99.90;;;;;;4968961;28;19972;-64
2022/10/16 10:22:22;;;;;;;;;;;17.90;99.90;;;;;;4969996;28;20370;-65
2022/10/16 10:24:58;;;;;;;;;;;18.10;99.90;;;;;;4967849;28;19982;-65
2022/10/16 10:27:31;;;;;;;;;;;18.30;99.90;;;;;;4970106;28;20748;-64
2022/10/16 10:30:02;;;;;;;;;;;18.40;99.90;;;;;;4968339;28;19982;-65
2022/10/16 10:32:33;;;;;;;;;;;18.60;99.90;;;;;;4968051;28;19972;-65
2022/10/16 10:35:08;;;;;;;;;;;18.80;99.90;;;;;;4968780;28;19975;-66
2022/10/16 10:37:41;;;;;;;;;;;19.00;99.90;;;;;;4967935;28;19979;-65
2022/10/16 10:40:14;;;;;;;;;;;19.30;99.90;;;;;;4971220;28;19972;-65
2022/10/16 10:42:49;;;;;;;;;;;19.50;99.90;;;;;;4968702;28;19970;-65
2022/10/16 10:45:25;;;;;;;;;;;20.20;99.90;;;;;;4971658;28;19974;-65
2022/10/16 10:47:59;;;;;;;;;;;20.70;99.90;;;;;;4970035;28;20564;-64
2022/10/16 10:50:31;;;;;;;;;;;21.30;99.90;;;;;;4970923;28;20462;-65
2022/10/16 10:53:02;;;;;;;;;;;21.20;99.90;;;;;;4968748;28;20474;-65
2022/10/16 10:55:34;;;;;;;;;;;21.00;99.90;;;;;;4975857;28;19972;-65
2022/10/16 10:58:11;;;;;;;;;;;20.90;99.90;;;;;;4968806;28;20019;-65
2022/10/16 11:00:43;;;;;;;;;;;20.70;99.90;;;;;;4975709;28;19975;-65
2022/10/16 11:03:14;;;;;;;;;;;20.50;99.90;;;;;;4973706;28;20062;-66
2022/10/16 11:05:43;;;;;;;;;;;20.50;99.90;;;;;;4972298;28;19968;-65
2022/10/16 11:08:14;;;;;;;;;;;20.40;99.90;;;;;;4969931;28;20067;-65
2022/10/16 11:10:45;;;;;;;;;;;20.20;99.90;;;;;;4972373;28;20451;-65
2022/10/16 11:13:20;;;;;;;;;;;20.30;99.90;;;;;;4968439;28;19968;-65
2022/10/16 11:15:49;;;;;;;;;;;20.20;99.90;;;;;;4970004;28;19964;-66
2022/10/16 11:18:24;;;;;;;;;;;20.40;99.90;;;;;;4966315;28;19983;-64
2022/10/16 11:20:54;;;;;;;;;;;20.90;99.90;;;;;;4971831;28;20020;-64
2022/10/16 11:23:24;;;;;;;;;;;21.20;99.90;;;;;;4970414;28;20471;-64
2022/10/16 11:25:52;;;;;;;;;;;21.60;99.90;;;;;;4966862;28;20579;-65
2022/10/16 11:28:24;;;;;;;;;;;22.20;99.90;;;;;;4968917;28;19973;-64
2022/10/16 11:30:58;;;;;;;;;;;22.20;99.90;;;;;;4969185;28;20053;-65
2022/10/16 11:33:31;;;;;;;;;;;22.30;99.90;;;;;;4975546;28;20080;-65
2022/10/16 11:36:02;;;;;;;;;;;22.30;99.90;;;;;;4969816;28;19998;-65
2022/10/16 11:38:32;;;;;;;;;;;22.30;99.90;;;;;;4968847;28;20055;-65
2022/10/16 11:41:02;;;;;;;;;;;21.90;99.90;;;;;;4969633;28;20004;-65
2022/10/16 11:43:34;;;;;;;;;;;21.70;99.90;;;;;;4971601;28;19967;-65
2022/10/16 11:46:05;;;;;;;;;;;21.40;99.90;;;;;;4966409;28;19983;-66
2022/10/16 11:48:39;;;;;;;;;;;21.50;99.90;;;;;;4971632;28;20437;-67
2022/10/16 11:51:11;;;;;;;;;;;22.10;99.90;;;;;;4972716;28;19976;-64
2022/10/16 11:53:43;;;;;;;;;;;22.60;99.90;;;;;;4974965;28;20014;-65
2022/10/16 11:56:13;;;;;;;;;;;22.50;99.90;;;;;;4974460;28;19968;-66
2022/10/16 11:58:48;;;;;;;;;;;22.60;99.90;;;;;;4972281;28;19973;-65
2022/10/16 12:01:18;;;;;;;;;;;22.30;99.90;;;;;;4972226;28;19971;-65
2022/10/16 12:03:48;;;;;;;;;;;22.60;99.90;;;;;;4973026;28;19968;-65
2022/10/16 12:06:26;;;;;;;;;;;22.80;99.90;;;;;;4972812;28;20817;-66
2022/10/16 12:08:56;;;;;;;;;;;23.40;99.90;;;;;;4973585;28;19986;-65
2022/10/16 12:11:31;;;;;;;;;;;23.40;99.90;;;;;;4969598;28;19979;-64
2022/10/16 12:14:20;;;;;;;;;;;23.10;99.90;;;;;;4977794;28;20016;-65
2022/10/16 12:16:52;;;;;;;;;;;23.20;99.90;;;;;;4970101;28;19975;-67
2022/10/16 12:19:20;;;;;;;;;;;23.30;99.90;;;;;;4970351;28;20530;-65
2022/10/16 12:21:49;;;;;;;;;;;23.30;99.90;;;;;;4972993;28;19976;-66
2022/10/16 12:24:35;;;;;;;;;;;23.50;99.90;;;;;;4972166;28;19972;-65
2022/10/16 12:27:04;;;;;;;;;;;23.30;99.90;;;;;;4970662;28;19977;-65
2022/10/16 12:29:38;;;;;;;;;;;23.00;99.90;;;;;;4972070;28;19972;-65
2022/10/16 12:32:07;;;;;;;;;;;22.90;99.90;;;;;;4971875;28;20553;-66
2022/10/16 12:34:39;;;;;;;;;;;22.70;99.90;;;;;;4970732;28;20046;-64
2022/10/16 12:37:13;;;;;;;;;;;22.40;99.90;;;;;;4970228;28;20679;-65
2022/10/16 12:39:41;;;;;;;;;;;22.20;99.90;;;;;;4967805;28;19970;-65
2022/10/16 12:42:21;;;;;;;;;;;22.00;99.90;;;;;;4971375;28;19973;-65
2022/10/16 12:44:50;;;;;;;;;;;21.70;99.90;;;;;;4967774;28;19983;-65
2022/10/16 12:47:23;;;;;;;;;;;21.50;99.90;;;;;;4971007;28;19965;-66
2022/10/16 12:49:52;;;;;;;;;;;21.50;99.90;;;;;;4982130;28;19974;-65
2022/10/16 12:52:27;;;;;;;;;;;21.40;99.90;;;;;;4991736;28;19968;-64
2022/10/16 12:54:58;;;;;;;;;;;21.50;99.90;;;;;;4991697;28;19972;-64
2022/10/16 12:57:32;;;;;;;;;;;21.50;99.90;;;;;;4991311;28;20004;-65
2022/10/16 13:00:10;;;;;;;;;;;21.60;99.90;;;;;;4991084;28;20004;-65
2022/10/16 13:02:58;;;;;;;;;;;21.50;99.90;;;;;;4991950;28;19972;-64
2022/10/16 13:05:28;;;;;;;;;;;21.50;99.90;;;;;;4991963;28;19988;-66
2022/10/16 13:08:01;;;;;;;;;;;21.50;99.90;;;;;;4991873;28;19975;-65
2022/10/16 13:10:31;;;;;;;;;;;21.40;99.90;;;;;;4991741;28;20413;-65
2022/10/16 13:13:17;;;;;;;;;;;21.40;99.90;;;;;;4991606;28;19968;-65
2022/10/16 13:15:53;;;;;;;;;;;21.40;99.90;;;;;;4991877;28;19972;-65
2022/10/16 13:18:23;;;;;;;;;;;21.30;99.90;;;;;;4991526;28;20445;-66
2022/10/16 13:20:55;;;;;;;;;;;21.30;99.90;;;;;;4991335;28;20066;-65
2022/10/16 13:23:27;;;;;;;;;;;21.30;99.90;;;;;;4991291;28;19978;-65
2022/10/16 13:26:02;;;;;;;;;;;21.50;99.90;;;;;;4952755;28;19968;-64
2022/10/16 13:28:32;;;;;;;;;;;21.80;99.90;;;;;;4952540;28;20349;-65
2022/10/16 13:31:02;;;;;;;;;;;21.90;99.90;;;;;;4952145;28;19976;-65
2022/10/16 13:33:32;;;;;;;;;;;22.00;99.90;;;;;;4952512;29;19968;-66
2022/10/16 13:36:00;;;;;;;;;;;22.10;99.90;;;;;;4952643;28;20055;-65
2022/10/16 13:38:28;;;;;;;;;;;22.10;99.90;;;;;;4952416;29;20101;-65
2022/10/16 13:40:57;;;;;;;;;;;22.10;99.90;;;;;;4952076;29;20066;-65
2022/10/16 13:43:28;;;;;;;;;;;22.20;99.90;;;;;;4952371;28;20441;-65
2022/10/16 13:45:57;;;;;;;;;;;22.10;99.90;;;;;;4952525;29;19968;-64
2022/10/16 13:48:26;;;;;;;;;;;22.00;99.90;;;;;;4952321;28;19968;-65
2022/10/16 13:51:00;;;;;;;;;;;21.80;99.90;;;;;;4952230;28;20356;-65
2022/10/16 13:53:30;;;;;;;;;;;21.70;99.90;;;;;;4952276;29;19973;-65
2022/10/16 13:55:59;;;;;;;;;;;21.70;99.90;;;;;;4952689;28;19979;-65
2022/10/16 13:58:27;;;;;;;;;;;21.60;99.90;;;;;;4951977;28;20422;-65
2022/10/16 14:00:57;;;;;;;;;;;21.50;99.90;;;;;;4951791;28;19968;-65
2022/10/16 14:03:27;;;;;;;;;;;21.50;99.90;;;;;;4952323;28;19975;-65
2022/10/16 14:05:55;;;;;;;;;;;21.30;99.90;;;;;;4952024;29;20457;-65
2022/10/16 14:08:24;;;;;;;;;;;21.30;99.90;;;;;;4951985;28;19969;-65
2022/10/16 14:10:54;;;;;;;;;;;21.20;99.90;;;;;;4950557;28;20426;-64
2022/10/16 14:13:25;;;;;;;;;;;21.20;99.90;;;;;;4951993;28;19972;-65
2022/10/16 14:15:54;;;;;;;;;;;21.20;99.90;;;;;;4952032;29;20424;-65
2022/10/16 14:18:23;;;;;;;;;;;21.10;99.90;;;;;;4951818;28;19979;-64
2022/10/16 14:20:52;;;;;;;;;;;21.00;99.90;;;;;;4951435;28;20452;-65
2022/10/16 14:23:21;;;;;;;;;;;20.90;99.90;;;;;;4951850;28;20072;-65
2022/10/16 14:25:49;;;;;;;;;;;20.90;99.90;;;;;;4951901;28;19981;-65
2022/10/16 14:28:17;;;;;;;;;;;20.90;99.90;;;;;;4951671;28;19970;-64
2022/10/16 14:30:52;;;;;;;;;;;20.90;99.90;;;;;;4951658;28;20053;-65